sensor_id;sensor_type;location;lat;lon;timestamp;temperature;humidity
19908;DHT22;10116;53.112;7.356;2023-05-07T00:01:49;25.10;89.60
19908;DHT22;10116;53.112;7.356;2023-05-07T00:04:15;25.10;89.60
19908;DHT22;10116;53.112;7.356;2023-05-07T00:06:40;25.10;89.20
19908;DHT22;10116;53.112;7.356;2023-05-07T00:09:06;25.10;88.40
19908;DHT22;10116;53.112;7.356;2023-05-07T00:11:32;25.10;88.50
19908;DHT22;10116;53.112;7.356;2023-05-07T00:13:58;25.10;96.60
19908;DHT22;10116;53.112;7.356;2023-05-07T00:16:24;25.20;96.50
19908;DHT22;10116;53.112;7.356;2023-05-07T00:18:49;25.10;88.40
19908;DHT22;10116;53.112;7.356;2023-05-07T00:21:15;25.10;96.50
19908;DHT22;10116;53.112;7.356;2023-05-07T00:23:41;25.10;88.30
19908;DHT22;10116;53.112;7.356;2023-05-07T00:26:07;25.10;88.10
19908;DHT22;10116;53.112;7.356;2023-05-07T00:28:32;25.10;88.80
19908;DHT22;10116;53.112;7.356;2023-05-07T00:30:58;25.10;87.30
19908;DHT22;10116;53.112;7.356;2023-05-07T00:33:23;25.10;89.10
19908;DHT22;10116;53.112;7.356;2023-05-07T00:35:49;25.10;87.70
19908;DHT22;10116;53.112;7.356;2023-05-07T00:38:15;25.10;88.20
19908;DHT22;10116;53.112;7.356;2023-05-07T00:40:41;25.10;87.40
19908;DHT22;10116;53.112;7.356;2023-05-07T00:43:06;25.10;87.80
19908;DHT22;10116;53.112;7.356;2023-05-07T00:45:33;25.10;87.80
19908;DHT22;10116;53.112;7.356;2023-05-07T00:48:00;25.10;87.90
19908;DHT22;10116;53.112;7.356;2023-05-07T00:50:27;25.10;87.30
19908;DHT22;10116;53.112;7.356;2023-05-07T00:52:53;25.10;87.20
19908;DHT22;10116;53.112;7.356;2023-05-07T00:55:21;25.10;87.20
19908;DHT22;10116;53.112;7.356;2023-05-07T00:57:46;25.10;88.80
19908;DHT22;10116;53.112;7.356;2023-05-07T01:00:12;25.10;87.10
19908;DHT22;10116;53.112;7.356;2023-05-07T01:02:39;25.10;87.40
19908;DHT22;10116;53.112;7.356;2023-05-07T01:05:06;25.10;87.40
19908;DHT22;10116;53.112;7.356;2023-05-07T01:07:34;25.00;86.90
19908;DHT22;10116;53.112;7.356;2023-05-07T01:10:02;25.00;87.20
19908;DHT22;10116;53.112;7.356;2023-05-07T01:12:28;25.00;86.50
19908;DHT22;10116;53.112;7.356;2023-05-07T01:14:55;25.00;87.80
19908;DHT22;10116;53.112;7.356;2023-05-07T01:17:20;25.00;86.50
19908;DHT22;10116;53.112;7.356;2023-05-07T01:19:46;25.00;86.70
19908;DHT22;10116;53.112;7.356;2023-05-07T01:22:15;25.00;87.10
19908;DHT22;10116;53.112;7.356;2023-05-07T01:24:42;25.00;86.10
19908;DHT22;10116;53.112;7.356;2023-05-07T01:27:08;25.00;86.90
19908;DHT22;10116;53.112;7.356;2023-05-07T01:29:33;25.00;86.20
19908;DHT22;10116;53.112;7.356;2023-05-07T01:32:01;25.00;86.60
19908;DHT22;10116;53.112;7.356;2023-05-07T01:34:31;25.00;86.50
19908;DHT22;10116;53.112;7.356;2023-05-07T01:36:58;25.00;85.70
19908;DHT22;10116;53.112;7.356;2023-05-07T01:39:25;25.00;85.30
19908;DHT22;10116;53.112;7.356;2023-05-07T01:41:55;25.00;85.00
19908;DHT22;10116;53.112;7.356;2023-05-07T01:44:22;25.00;95.40
19908;DHT22;10116;53.112;7.356;2023-05-07T01:46:48;25.00;85.60
19908;DHT22;10116;53.112;7.356;2023-05-07T01:49:15;25.00;85.00
19908;DHT22;10116;53.112;7.356;2023-05-07T01:51:41;25.00;85.30
19908;DHT22;10116;53.112;7.356;2023-05-07T01:54:07;25.00;84.90
19908;DHT22;10116;53.112;7.356;2023-05-07T01:56:33;25.00;85.10
19908;DHT22;10116;53.112;7.356;2023-05-07T01:59:01;25.00;84.50
19908;DHT22;10116;53.112;7.356;2023-05-07T02:01:27;25.00;84.70
19908;DHT22;10116;53.112;7.356;2023-05-07T02:03:53;24.90;84.70
19908;DHT22;10116;53.112;7.356;2023-05-07T02:06:19;24.90;84.20
19908;DHT22;10116;53.112;7.356;2023-05-07T02:08:45;24.90;84.40
19908;DHT22;10116;53.112;7.356;2023-05-07T02:11:11;24.90;83.90
19908;DHT22;10116;53.112;7.356;2023-05-07T02:13:37;24.90;85.50
19908;DHT22;10116;53.112;7.356;2023-05-07T02:16:03;24.90;84.00
19908;DHT22;10116;53.112;7.356;2023-05-07T02:18:29;24.90;83.70
19908;DHT22;10116;53.112;7.356;2023-05-07T02:20:55;24.90;84.30
19908;DHT22;10116;53.112;7.356;2023-05-07T02:23:20;24.90;84.20
19908;DHT22;10116;53.112;7.356;2023-05-07T02:25:46;24.90;83.40
19908;DHT22;10116;53.112;7.356;2023-05-07T02:28:12;24.90;83.60
19908;DHT22;10116;53.112;7.356;2023-05-07T02:30:38;24.90;83.30
19908;DHT22;10116;53.112;7.356;2023-05-07T02:33:04;24.90;83.30
19908;DHT22;10116;53.112;7.356;2023-05-07T02:35:29;24.90;83.80
19908;DHT22;10116;53.112;7.356;2023-05-07T02:37:55;24.90;83.70
19908;DHT22;10116;53.112;7.356;2023-05-07T02:40:21;24.90;83.10
19908;DHT22;10116;53.112;7.356;2023-05-07T02:42:47;24.90;84.50
19908;DHT22;10116;53.112;7.356;2023-05-07T02:45:12;24.90;82.70
19908;DHT22;10116;53.112;7.356;2023-05-07T02:47:39;24.90;82.80
19908;DHT22;10116;53.112;7.356;2023-05-07T02:50:05;24.90;83.80
19908;DHT22;10116;53.112;7.356;2023-05-07T02:52:31;24.90;82.70
19908;DHT22;10116;53.112;7.356;2023-05-07T02:54:57;24.90;82.60
19908;DHT22;10116;53.112;7.356;2023-05-07T02:57:22;24.90;82.80
19908;DHT22;10116;53.112;7.356;2023-05-07T02:59:48;24.90;83.40
19908;DHT22;10116;53.112;7.356;2023-05-07T03:02:13;24.90;83.20
19908;DHT22;10116;53.112;7.356;2023-05-07T03:04:39;24.90;84.00
19908;DHT22;10116;53.112;7.356;2023-05-07T03:07:05;24.80;82.70
19908;DHT22;10116;53.112;7.356;2023-05-07T03:09:31;24.90;82.30
19908;DHT22;10116;53.112;7.356;2023-05-07T03:11:56;24.80;81.80
19908;DHT22;10116;53.112;7.356;2023-05-07T03:14:22;24.80;82.70
19908;DHT22;10116;53.112;7.356;2023-05-07T03:16:49;24.80;83.00
19908;DHT22;10116;53.112;7.356;2023-05-07T03:19:15;24.90;82.30
19908;DHT22;10116;53.112;7.356;2023-05-07T03:21:40;24.80;81.50
19908;DHT22;10116;53.112;7.356;2023-05-07T03:24:06;24.80;82.00
19908;DHT22;10116;53.112;7.356;2023-05-07T03:26:32;24.80;83.60
19908;DHT22;10116;53.112;7.356;2023-05-07T03:28:57;24.80;81.50
19908;DHT22;10116;53.112;7.356;2023-05-07T03:31:23;24.90;82.60
19908;DHT22;10116;53.112;7.356;2023-05-07T03:33:56;24.90;83.20
19908;DHT22;10116;53.112;7.356;2023-05-07T03:36:23;25.00;83.50
19908;DHT22;10116;53.112;7.356;2023-05-07T03:38:49;25.00;84.80
19908;DHT22;10116;53.112;7.356;2023-05-07T03:41:15;25.00;84.30
19908;DHT22;10116;53.112;7.356;2023-05-07T03:43:41;25.10;85.40
19908;DHT22;10116;53.112;7.356;2023-05-07T03:46:07;25.10;85.30
19908;DHT22;10116;53.112;7.356;2023-05-07T03:48:33;25.10;85.30
19908;DHT22;10116;53.112;7.356;2023-05-07T03:50:58;25.20;86.10
19908;DHT22;10116;53.112;7.356;2023-05-07T03:53:24;25.20;86.20
19908;DHT22;10116;53.112;7.356;2023-05-07T03:55:50;25.20;86.10
19908;DHT22;10116;53.112;7.356;2023-05-07T03:58:16;25.20;85.70
19908;DHT22;10116;53.112;7.356;2023-05-07T04:00:42;25.20;86.20
19908;DHT22;10116;53.112;7.356;2023-05-07T04:03:08;25.20;86.80
19908;DHT22;10116;53.112;7.356;2023-05-07T04:05:33;25.20;87.00
19908;DHT22;10116;53.112;7.356;2023-05-07T04:08:00;25.20;85.30
19908;DHT22;10116;53.112;7.356;2023-05-07T04:10:26;25.20;85.50
19908;DHT22;10116;53.112;7.356;2023-05-07T04:12:52;25.20;85.10
19908;DHT22;10116;53.112;7.356;2023-05-07T04:15:17;25.20;84.60
19908;DHT22;10116;53.112;7.356;2023-05-07T04:17:43;25.20;86.10
19908;DHT22;10116;53.112;7.356;2023-05-07T04:20:10;25.20;84.40
19908;DHT22;10116;53.112;7.356;2023-05-07T04:22:36;25.20;84.50
19908;DHT22;10116;53.112;7.356;2023-05-07T04:25:03;25.20;84.00
19908;DHT22;10116;53.112;7.356;2023-05-07T04:27:29;25.20;84.30
19908;DHT22;10116;53.112;7.356;2023-05-07T04:29:55;25.20;84.10
19908;DHT22;10116;53.112;7.356;2023-05-07T04:32:21;25.20;84.40
19908;DHT22;10116;53.112;7.356;2023-05-07T04:34:47;25.20;84.10
19908;DHT22;10116;53.112;7.356;2023-05-07T04:37:13;25.20;84.40
19908;DHT22;10116;53.112;7.356;2023-05-07T04:39:38;25.20;84.00
19908;DHT22;10116;53.112;7.356;2023-05-07T04:42:04;25.20;83.70
19908;DHT22;10116;53.112;7.356;2023-05-07T04:44:30;25.20;83.10
19908;DHT22;10116;53.112;7.356;2023-05-07T04:46:56;25.10;83.00
19908;DHT22;10116;53.112;7.356;2023-05-07T04:49:22;25.20;83.10
19908;DHT22;10116;53.112;7.356;2023-05-07T04:51:49;25.10;82.60
19908;DHT22;10116;53.112;7.356;2023-05-07T04:54:14;25.20;83.00
19908;DHT22;10116;53.112;7.356;2023-05-07T04:56:40;25.20;83.20
19908;DHT22;10116;53.112;7.356;2023-05-07T04:59:06;25.20;83.30
19908;DHT22;10116;53.112;7.356;2023-05-07T05:01:31;25.20;83.50
19908;DHT22;10116;53.112;7.356;2023-05-07T05:03:57;25.30;83.80
19908;DHT22;10116;53.112;7.356;2023-05-07T05:06:22;25.30;84.00
19908;DHT22;10116;53.112;7.356;2023-05-07T05:08:48;25.30;85.00
19908;DHT22;10116;53.112;7.356;2023-05-07T05:11:14;25.30;84.40
19908;DHT22;10116;53.112;7.356;2023-05-07T05:13:40;25.30;84.40
19908;DHT22;10116;53.112;7.356;2023-05-07T05:16:06;25.30;84.00
19908;DHT22;10116;53.112;7.356;2023-05-07T05:18:32;25.30;84.00
19908;DHT22;10116;53.112;7.356;2023-05-07T05:20:58;25.30;83.80
19908;DHT22;10116;53.112;7.356;2023-05-07T05:23:24;25.30;84.20
19908;DHT22;10116;53.112;7.356;2023-05-07T05:25:49;25.30;83.50
19908;DHT22;10116;53.112;7.356;2023-05-07T05:28:15;25.30;82.50
19908;DHT22;10116;53.112;7.356;2023-05-07T05:30:40;25.30;82.80
19908;DHT22;10116;53.112;7.356;2023-05-07T05:33:06;25.30;83.30
19908;DHT22;10116;53.112;7.356;2023-05-07T05:35:32;25.30;83.00
19908;DHT22;10116;53.112;7.356;2023-05-07T05:37:57;25.30;83.50
19908;DHT22;10116;53.112;7.356;2023-05-07T05:40:23;25.30;81.90
19908;DHT22;10116;53.112;7.356;2023-05-07T05:42:48;25.30;82.00
19908;DHT22;10116;53.112;7.356;2023-05-07T05:45:14;25.30;81.40
19908;DHT22;10116;53.112;7.356;2023-05-07T05:47:41;25.30;81.40
19908;DHT22;10116;53.112;7.356;2023-05-07T05:50:07;25.30;81.90
19908;DHT22;10116;53.112;7.356;2023-05-07T05:52:32;25.20;81.90
19908;DHT22;10116;53.112;7.356;2023-05-07T05:54:58;25.20;80.90
19908;DHT22;10116;53.112;7.356;2023-05-07T05:57:23;25.20;81.20
19908;DHT22;10116;53.112;7.356;2023-05-07T05:59:49;25.20;81.00
19908;DHT22;10116;53.112;7.356;2023-05-07T06:02:15;25.20;81.30
19908;DHT22;10116;53.112;7.356;2023-05-07T06:04:41;25.20;80.80
19908;DHT22;10116;53.112;7.356;2023-05-07T06:07:07;25.20;81.10
19908;DHT22;10116;53.112;7.356;2023-05-07T06:09:33;25.20;80.20
19908;DHT22;10116;53.112;7.356;2023-05-07T06:11:59;25.20;79.80
19908;DHT22;10116;53.112;7.356;2023-05-07T06:14:24;25.20;79.90
19908;DHT22;10116;53.112;7.356;2023-05-07T06:16:50;25.20;79.70
19908;DHT22;10116;53.112;7.356;2023-05-07T06:19:16;25.20;80.00
19908;DHT22;10116;53.112;7.356;2023-05-07T06:21:43;25.30;80.60
19908;DHT22;10116;53.112;7.356;2023-05-07T06:24:09;25.30;81.00
19908;DHT22;10116;53.112;7.356;2023-05-07T06:26:35;25.30;81.50
19908;DHT22;10116;53.112;7.356;2023-05-07T06:29:01;25.40;81.50
19908;DHT22;10116;53.112;7.356;2023-05-07T06:31:30;25.40;81.60
19908;DHT22;10116;53.112;7.356;2023-05-07T06:33:57;25.40;81.60
19908;DHT22;10116;53.112;7.356;2023-05-07T06:36:22;25.40;82.10
19908;DHT22;10116;53.112;7.356;2023-05-07T06:38:48;25.40;81.60
19908;DHT22;10116;53.112;7.356;2023-05-07T06:41:14;25.40;82.00
19908;DHT22;10116;53.112;7.356;2023-05-07T06:43:39;25.40;81.20
19908;DHT22;10116;53.112;7.356;2023-05-07T06:46:05;25.40;81.80
19908;DHT22;10116;53.112;7.356;2023-05-07T06:48:31;25.40;81.10
19908;DHT22;10116;53.112;7.356;2023-05-07T06:50:56;25.40;80.50
19908;DHT22;10116;53.112;7.356;2023-05-07T06:53:23;25.40;83.10
19908;DHT22;10116;53.112;7.356;2023-05-07T06:55:49;25.30;80.40
19908;DHT22;10116;53.112;7.356;2023-05-07T06:58:14;25.30;79.80
19908;DHT22;10116;53.112;7.356;2023-05-07T07:00:40;25.30;79.80
19908;DHT22;10116;53.112;7.356;2023-05-07T07:03:06;25.30;79.00
19908;DHT22;10116;53.112;7.356;2023-05-07T07:05:32;25.20;78.20
19908;DHT22;10116;53.112;7.356;2023-05-07T07:07:58;25.20;78.00
19908;DHT22;10116;53.112;7.356;2023-05-07T07:10:23;25.20;77.30
19908;DHT22;10116;53.112;7.356;2023-05-07T07:12:49;25.20;76.70
19908;DHT22;10116;53.112;7.356;2023-05-07T07:15:15;25.20;76.70
19908;DHT22;10116;53.112;7.356;2023-05-07T07:17:41;25.20;76.30
19908;DHT22;10116;53.112;7.356;2023-05-07T07:20:07;25.10;76.60
19908;DHT22;10116;53.112;7.356;2023-05-07T07:22:33;25.10;75.90
19908;DHT22;10116;53.112;7.356;2023-05-07T07:24:59;25.10;75.90
19908;DHT22;10116;53.112;7.356;2023-05-07T07:27:24;25.10;76.00
19908;DHT22;10116;53.112;7.356;2023-05-07T07:29:50;25.10;77.00
19908;DHT22;10116;53.112;7.356;2023-05-07T07:32:16;25.10;75.20
19908;DHT22;10116;53.112;7.356;2023-05-07T07:34:41;25.00;74.60
19908;DHT22;10116;53.112;7.356;2023-05-07T07:37:07;25.00;75.50
19908;DHT22;10116;53.112;7.356;2023-05-07T07:39:33;25.00;74.40
19908;DHT22;10116;53.112;7.356;2023-05-07T07:41:59;25.00;74.80
19908;DHT22;10116;53.112;7.356;2023-05-07T07:44:25;25.00;90.30
19908;DHT22;10116;53.112;7.356;2023-05-07T07:46:51;25.00;74.30
19908;DHT22;10116;53.112;7.356;2023-05-07T07:49:16;25.00;74.20
19908;DHT22;10116;53.112;7.356;2023-05-07T07:51:42;25.00;74.70
19908;DHT22;10116;53.112;7.356;2023-05-07T07:54:08;25.00;74.80
19908;DHT22;10116;53.112;7.356;2023-05-07T07:56:34;25.00;75.70
19908;DHT22;10116;53.112;7.356;2023-05-07T07:59:00;25.00;74.40
19908;DHT22;10116;53.112;7.356;2023-05-07T08:01:26;25.00;74.00
19908;DHT22;10116;53.112;7.356;2023-05-07T08:03:52;25.00;74.10
19908;DHT22;10116;53.112;7.356;2023-05-07T08:06:18;25.00;74.20
19908;DHT22;10116;53.112;7.356;2023-05-07T08:08:44;25.00;73.30
19908;DHT22;10116;53.112;7.356;2023-05-07T08:11:10;25.00;73.90
19908;DHT22;10116;53.112;7.356;2023-05-07T08:13:36;24.90;72.80
19908;DHT22;10116;53.112;7.356;2023-05-07T08:16:02;24.90;72.90
19908;DHT22;10116;53.112;7.356;2023-05-07T08:18:27;24.90;72.70
19908;DHT22;10116;53.112;7.356;2023-05-07T08:20:54;24.90;73.60
19908;DHT22;10116;53.112;7.356;2023-05-07T08:23:20;24.90;72.10
19908;DHT22;10116;53.112;7.356;2023-05-07T08:25:46;24.90;73.50
19908;DHT22;10116;53.112;7.356;2023-05-07T08:28:12;24.90;72.10
19908;DHT22;10116;53.112;7.356;2023-05-07T08:30:37;24.90;88.40
19908;DHT22;10116;53.112;7.356;2023-05-07T08:33:03;24.90;72.10
19908;DHT22;10116;53.112;7.356;2023-05-07T08:35:28;24.90;72.50
19908;DHT22;10116;53.112;7.356;2023-05-07T08:37:55;24.90;72.70
19908;DHT22;10116;53.112;7.356;2023-05-07T08:40:24;24.80;71.90
19908;DHT22;10116;53.112;7.356;2023-05-07T08:42:53;24.90;72.30
19908;DHT22;10116;53.112;7.356;2023-05-07T08:45:19;24.90;89.00
19908;DHT22;10116;53.112;7.356;2023-05-07T08:47:48;24.90;73.10
19908;DHT22;10116;53.112;7.356;2023-05-07T08:50:16;25.00;75.00
19908;DHT22;10116;53.112;7.356;2023-05-07T08:52:41;25.00;75.60
19908;DHT22;10116;53.112;7.356;2023-05-07T08:55:08;25.00;75.10
19908;DHT22;10116;53.112;7.356;2023-05-07T08:57:34;25.00;76.80
19908;DHT22;10116;53.112;7.356;2023-05-07T09:00:02;25.10;75.60
19908;DHT22;10116;53.112;7.356;2023-05-07T09:02:28;25.10;76.70
19908;DHT22;10116;53.112;7.356;2023-05-07T09:04:53;25.00;90.60
19908;DHT22;10116;53.112;7.356;2023-05-07T09:07:20;25.00;75.20
19908;DHT22;10116;53.112;7.356;2023-05-07T09:09:46;25.00;77.10
19908;DHT22;10116;53.112;7.356;2023-05-07T09:12:12;25.00;74.40
19908;DHT22;10116;53.112;7.356;2023-05-07T09:14:38;25.00;74.00
19908;DHT22;10116;53.112;7.356;2023-05-07T09:17:04;25.00;74.20
19908;DHT22;10116;53.112;7.356;2023-05-07T09:19:30;25.00;73.30
19908;DHT22;10116;53.112;7.356;2023-05-07T09:22:04;24.90;73.00
19908;DHT22;10116;53.112;7.356;2023-05-07T09:24:31;24.90;72.90
19908;DHT22;10116;53.112;7.356;2023-05-07T09:27:01;25.00;72.70
19908;DHT22;10116;53.112;7.356;2023-05-07T09:29:28;25.00;72.90
19908;DHT22;10116;53.112;7.356;2023-05-07T09:32:02;25.00;73.30
19908;DHT22;10116;53.112;7.356;2023-05-07T09:34:31;25.00;74.30
19908;DHT22;10116;53.112;7.356;2023-05-07T09:37:01;25.00;73.60
19908;DHT22;10116;53.112;7.356;2023-05-07T09:39:45;25.00;73.80
19908;DHT22;10116;53.112;7.356;2023-05-07T09:42:11;25.00;73.50
19908;DHT22;10116;53.112;7.356;2023-05-07T09:44:38;25.00;73.90
19908;DHT22;10116;53.112;7.356;2023-05-07T09:47:07;25.00;74.00
19908;DHT22;10116;53.112;7.356;2023-05-07T09:49:34;25.00;74.10
19908;DHT22;10116;53.112;7.356;2023-05-07T09:52:03;25.00;74.20
19908;DHT22;10116;53.112;7.356;2023-05-07T09:54:32;25.00;73.20
19908;DHT22;10116;53.112;7.356;2023-05-07T09:57:02;25.00;74.40
19908;DHT22;10116;53.112;7.356;2023-05-07T09:59:31;25.00;73.60
19908;DHT22;10116;53.112;7.356;2023-05-07T10:01:58;25.00;73.70
19908;DHT22;10116;53.112;7.356;2023-05-07T10:04:27;25.00;75.20
19908;DHT22;10116;53.112;7.356;2023-05-07T10:06:54;25.00;74.90
19908;DHT22;10116;53.112;7.356;2023-05-07T10:09:21;25.00;74.20
19908;DHT22;10116;53.112;7.356;2023-05-07T10:11:49;25.00;75.30
19908;DHT22;10116;53.112;7.356;2023-05-07T10:14:14;25.00;75.50
19908;DHT22;10116;53.112;7.356;2023-05-07T10:16:41;25.00;75.50
19908;DHT22;10116;53.112;7.356;2023-05-07T10:19:08;25.00;75.20
19908;DHT22;10116;53.112;7.356;2023-05-07T10:21:48;25.10;75.80
19908;DHT22;10116;53.112;7.356;2023-05-07T10:24:26;25.10;75.80
19908;DHT22;10116;53.112;7.356;2023-05-07T10:26:53;25.10;91.10
19908;DHT22;10116;53.112;7.356;2023-05-07T10:34:32;25.00;75.90
19908;DHT22;10116;53.112;7.356;2023-05-07T10:37:00;25.00;76.50
19908;DHT22;10116;53.112;7.356;2023-05-07T10:39:26;25.00;75.60
19908;DHT22;10116;53.112;7.356;2023-05-07T10:41:52;25.00;75.50
19908;DHT22;10116;53.112;7.356;2023-05-07T10:44:28;25.10;76.50
19908;DHT22;10116;53.112;7.356;2023-05-07T10:47:15;25.10;76.70
19908;DHT22;10116;53.112;7.356;2023-05-07T10:52:27;25.10;76.50
19908;DHT22;10116;53.112;7.356;2023-05-07T10:57:46;25.10;76.90
19908;DHT22;10116;53.112;7.356;2023-05-07T11:05:32;25.10;77.80
19908;DHT22;10116;53.112;7.356;2023-05-07T11:08:02;25.10;77.30
19908;DHT22;10116;53.112;7.356;2023-05-07T11:10:54;25.10;78.00
19908;DHT22;10116;53.112;7.356;2023-05-07T11:13:42;25.10;77.30
19908;DHT22;10116;53.112;7.356;2023-05-07T11:16:25;25.10;78.00
19908;DHT22;10116;53.112;7.356;2023-05-07T11:18:54;25.20;78.40
19908;DHT22;10116;53.112;7.356;2023-05-07T11:21:37;25.20;80.50
19908;DHT22;10116;53.112;7.356;2023-05-07T11:24:04;25.30;80.10
19908;DHT22;10116;53.112;7.356;2023-05-07T11:26:41;25.30;80.40
19908;DHT22;10116;53.112;7.356;2023-05-07T11:29:17;25.40;81.60
19908;DHT22;10116;53.112;7.356;2023-05-07T11:31:44;25.40;82.20
19908;DHT22;10116;53.112;7.356;2023-05-07T11:34:14;25.40;82.80
19908;DHT22;10116;53.112;7.356;2023-05-07T11:36:44;25.40;83.60
19908;DHT22;10116;53.112;7.356;2023-05-07T11:39:30;25.50;83.70
19908;DHT22;10116;53.112;7.356;2023-05-07T11:41:59;25.50;83.40
19908;DHT22;10116;53.112;7.356;2023-05-07T11:44:24;25.50;84.30
19908;DHT22;10116;53.112;7.356;2023-05-07T11:46:50;25.50;83.90
19908;DHT22;10116;53.112;7.356;2023-05-07T11:49:17;25.50;84.50
19908;DHT22;10116;53.112;7.356;2023-05-07T11:51:43;25.50;83.90
19908;DHT22;10116;53.112;7.356;2023-05-07T11:54:09;25.50;84.70
19908;DHT22;10116;53.112;7.356;2023-05-07T11:56:37;25.50;83.50
19908;DHT22;10116;53.112;7.356;2023-05-07T11:59:03;25.50;83.90
19908;DHT22;10116;53.112;7.356;2023-05-07T12:01:28;25.50;94.50
19908;DHT22;10116;53.112;7.356;2023-05-07T12:03:54;25.50;84.20
19908;DHT22;10116;53.112;7.356;2023-05-07T12:06:20;25.50;85.70
19908;DHT22;10116;53.112;7.356;2023-05-07T12:08:46;25.50;84.90
19908;DHT22;10116;53.112;7.356;2023-05-07T12:11:16;25.60;86.90
19908;DHT22;10116;53.112;7.356;2023-05-07T12:13:46;25.50;85.60
19908;DHT22;10116;53.112;7.356;2023-05-07T12:16:12;25.60;85.10
19908;DHT22;10116;53.112;7.356;2023-05-07T12:18:38;25.60;84.70
19908;DHT22;10116;53.112;7.356;2023-05-07T12:21:05;25.50;84.40
19908;DHT22;10116;53.112;7.356;2023-05-07T12:23:32;25.50;85.10
19908;DHT22;10116;53.112;7.356;2023-05-07T12:25:59;25.50;85.30
19908;DHT22;10116;53.112;7.356;2023-05-07T12:28:25;25.50;85.70
19908;DHT22;10116;53.112;7.356;2023-05-07T12:30:51;25.50;85.30
19908;DHT22;10116;53.112;7.356;2023-05-07T12:33:23;25.50;85.20
19908;DHT22;10116;53.112;7.356;2023-05-07T12:35:49;25.50;84.70
19908;DHT22;10116;53.112;7.356;2023-05-07T12:38:16;25.50;84.90
19908;DHT22;10116;53.112;7.356;2023-05-07T12:40:47;25.50;84.90
19908;DHT22;10116;53.112;7.356;2023-05-07T12:43:26;25.50;84.90
19908;DHT22;10116;53.112;7.356;2023-05-07T12:45:54;25.60;94.80
19908;DHT22;10116;53.112;7.356;2023-05-07T12:48:21;25.60;84.70
19908;DHT22;10116;53.112;7.356;2023-05-07T12:50:51;25.60;84.80
19908;DHT22;10116;53.112;7.356;2023-05-07T12:53:17;25.60;86.00
19908;DHT22;10116;53.112;7.356;2023-05-07T12:55:47;25.60;87.10
19908;DHT22;10116;53.112;7.356;2023-05-07T12:58:18;25.60;85.70
19908;DHT22;10116;53.112;7.356;2023-05-07T13:00:44;25.60;85.60
19908;DHT22;10116;53.112;7.356;2023-05-07T13:03:11;25.60;88.10
19908;DHT22;10116;53.112;7.356;2023-05-07T13:05:37;25.60;85.60
19908;DHT22;10116;53.112;7.356;2023-05-07T13:08:02;25.60;86.00
19908;DHT22;10116;53.112;7.356;2023-05-07T13:10:28;25.60;86.30
19908;DHT22;10116;53.112;7.356;2023-05-07T13:12:54;25.60;86.50
19908;DHT22;10116;53.112;7.356;2023-05-07T13:15:20;25.60;95.70
19908;DHT22;10116;53.112;7.356;2023-05-07T13:17:47;25.60;87.30
19908;DHT22;10116;53.112;7.356;2023-05-07T13:20:12;25.70;87.60
19908;DHT22;10116;53.112;7.356;2023-05-07T13:22:39;25.80;89.60
19908;DHT22;10116;53.112;7.356;2023-05-07T13:25:05;25.80;90.20
19908;DHT22;10116;53.112;7.356;2023-05-07T13:27:31;25.80;90.60
19908;DHT22;10116;53.112;7.356;2023-05-07T13:29:57;25.90;90.20
19908;DHT22;10116;53.112;7.356;2023-05-07T13:32:22;25.90;90.40
19908;DHT22;10116;53.112;7.356;2023-05-07T13:34:48;25.90;90.30
19908;DHT22;10116;53.112;7.356;2023-05-07T13:37:14;25.90;90.70
19908;DHT22;10116;53.112;7.356;2023-05-07T13:39:39;25.90;90.70
19908;DHT22;10116;53.112;7.356;2023-05-07T13:42:06;25.90;90.70
19908;DHT22;10116;53.112;7.356;2023-05-07T13:44:31;25.90;90.80
19908;DHT22;10116;53.112;7.356;2023-05-07T13:46:57;25.90;90.60
19908;DHT22;10116;53.112;7.356;2023-05-07T13:49:23;26.00;90.80
19908;DHT22;10116;53.112;7.356;2023-05-07T13:51:49;26.00;91.50
19908;DHT22;10116;53.112;7.356;2023-05-07T13:54:14;26.00;91.00
19908;DHT22;10116;53.112;7.356;2023-05-07T13:56:41;26.00;91.30
19908;DHT22;10116;53.112;7.356;2023-05-07T13:59:07;26.00;91.20
19908;DHT22;10116;53.112;7.356;2023-05-07T14:01:32;26.00;91.10
19908;DHT22;10116;53.112;7.356;2023-05-07T14:03:58;26.00;91.10
19908;DHT22;10116;53.112;7.356;2023-05-07T14:06:25;26.00;98.60
19908;DHT22;10116;53.112;7.356;2023-05-07T14:08:50;26.00;90.90
19908;DHT22;10116;53.112;7.356;2023-05-07T14:11:16;26.00;91.20
19908;DHT22;10116;53.112;7.356;2023-05-07T14:13:42;26.00;98.50
19908;DHT22;10116;53.112;7.356;2023-05-07T14:16:07;26.00;90.70
19908;DHT22;10116;53.112;7.356;2023-05-07T14:18:33;26.00;90.60
19908;DHT22;10116;53.112;7.356;2023-05-07T14:20:59;25.90;90.80
19908;DHT22;10116;53.112;7.356;2023-05-07T14:23:25;25.90;90.70
19908;DHT22;10116;53.112;7.356;2023-05-07T14:25:52;25.90;90.60
19908;DHT22;10116;53.112;7.356;2023-05-07T14:28:18;25.90;90.80
19908;DHT22;10116;53.112;7.356;2023-05-07T14:30:44;25.90;90.50
19908;DHT22;10116;53.112;7.356;2023-05-07T14:33:10;25.90;90.50
19908;DHT22;10116;53.112;7.356;2023-05-07T14:35:35;25.90;90.60
19908;DHT22;10116;53.112;7.356;2023-05-07T14:38:01;25.90;90.20
19908;DHT22;10116;53.112;7.356;2023-05-07T14:40:27;25.90;90.70
19908;DHT22;10116;53.112;7.356;2023-05-07T14:42:52;25.90;90.40
19908;DHT22;10116;53.112;7.356;2023-05-07T14:45:18;26.00;91.30
19908;DHT22;10116;53.112;7.356;2023-05-07T14:47:44;26.00;91.00
19908;DHT22;10116;53.112;7.356;2023-05-07T14:50:09;26.10;91.20
19908;DHT22;10116;53.112;7.356;2023-05-07T14:52:35;26.10;91.50
19908;DHT22;10116;53.112;7.356;2023-05-07T14:55:01;26.10;91.50
19908;DHT22;10116;53.112;7.356;2023-05-07T14:57:26;26.20;91.80
19908;DHT22;10116;53.112;7.356;2023-05-07T14:59:52;26.20;91.70
19908;DHT22;10116;53.112;7.356;2023-05-07T15:02:18;26.20;92.00
19908;DHT22;10116;53.112;7.356;2023-05-07T15:04:43;26.20;91.70
19908;DHT22;10116;53.112;7.356;2023-05-07T15:07:13;26.20;92.00
19908;DHT22;10116;53.112;7.356;2023-05-07T15:09:43;26.20;91.80
19908;DHT22;10116;53.112;7.356;2023-05-07T15:12:08;26.20;92.00
19908;DHT22;10116;53.112;7.356;2023-05-07T15:14:34;26.20;91.80
19908;DHT22;10116;53.112;7.356;2023-05-07T15:17:00;26.20;92.10
19908;DHT22;10116;53.112;7.356;2023-05-07T15:19:25;26.20;91.60
19908;DHT22;10116;53.112;7.356;2023-05-07T15:21:55;26.20;91.60
19908;DHT22;10116;53.112;7.356;2023-05-07T15:24:22;26.20;91.70
19908;DHT22;10116;53.112;7.356;2023-05-07T15:26:48;26.20;91.10
19908;DHT22;10116;53.112;7.356;2023-05-07T15:29:13;26.20;91.40
19908;DHT22;10116;53.112;7.356;2023-05-07T15:31:39;26.20;91.20
19908;DHT22;10116;53.112;7.356;2023-05-07T15:34:04;26.20;91.50
19908;DHT22;10116;53.112;7.356;2023-05-07T15:36:30;26.20;91.10
19908;DHT22;10116;53.112;7.356;2023-05-07T15:38:57;26.10;90.60
19908;DHT22;10116;53.112;7.356;2023-05-07T15:41:22;26.10;91.00
19908;DHT22;10116;53.112;7.356;2023-05-07T15:43:51;26.10;90.80